sensor_id;sensor_type;location;lat;lon;timestamp;P1;durP1;ratioP1;P2;durP2;ratioP2
10979;SDS011;5543;51.734;8.744;2023-01-28T00:02:04;1.50;;;1.00;;
10979;SDS011;5543;51.734;8.744;2023-01-28T00:04:33;0.60;;;0.60;;
10979;SDS011;5543;51.734;8.744;2023-01-28T00:07:01;2.47;;;0.83;;
10979;SDS011;5543;51.734;8.744;2023-01-28T00:09:29;1.90;;;0.90;;
10979;SDS011;5543;51.734;8.744;2023-01-28T00:11:57;0.63;;;0.63;;
10979;SDS011;5543;51.734;8.744;2023-01-28T00:14:28;3.03;;;0.90;;
10979;SDS011;5543;51.734;8.744;2023-01-28T00:16:56;0.70;;;0.70;;
10979;SDS011;5543;51.734;8.744;2023-01-28T00:19:25;1.30;;;1.10;;
10979;SDS011;5543;51.734;8.744;2023-01-28T00:21:53;2.00;;;0.80;;
10979;SDS011;5543;51.734;8.744;2023-01-28T00:24:22;2.07;;;0.77;;
10979;SDS011;5543;51.734;8.744;2023-01-28T00:26:50;1.07;;;0.97;;
10979;SDS011;5543;51.734;8.744;2023-01-28T00:29:18;0.93;;;0.80;;
10979;SDS011;5543;51.734;8.744;2023-01-28T00:31:46;0.53;;;0.53;;
10979;SDS011;5543;51.734;8.744;2023-01-28T00:34:14;0.77;;;0.73;;
10979;SDS011;5543;51.734;8.744;2023-01-28T00:36:44;4.20;;;0.87;;
10979;SDS011;5543;51.734;8.744;2023-01-28T00:39:23;1.50;;;1.40;;
10979;SDS011;5543;51.734;8.744;2023-01-28T00:41:52;1.77;;;0.80;;
10979;SDS011;5543;51.734;8.744;2023-01-28T00:44:20;4.50;;;1.10;;
10979;SDS011;5543;51.734;8.744;2023-01-28T00:46:48;1.17;;;0.90;;
10979;SDS011;5543;51.734;8.744;2023-01-28T00:49:16;1.03;;;0.93;;
10979;SDS011;5543;51.734;8.744;2023-01-28T00:51:46;1.10;;;1.00;;
10979;SDS011;5543;51.734;8.744;2023-01-28T00:54:15;2.00;;;0.90;;
10979;SDS011;5543;51.734;8.744;2023-01-28T00:56:43;1.07;;;0.97;;
10979;SDS011;5543;51.734;8.744;2023-01-28T00:59:11;1.00;;;1.00;;
10979;SDS011;5543;51.734;8.744;2023-01-28T01:01:39;1.30;;;1.07;;
10979;SDS011;5543;51.734;8.744;2023-01-28T01:04:07;0.87;;;0.87;;
10979;SDS011;5543;51.734;8.744;2023-01-28T01:06:36;1.43;;;1.00;;
10979;SDS011;5543;51.734;8.744;2023-01-28T01:09:07;1.20;;;0.97;;
10979;SDS011;5543;51.734;8.744;2023-01-28T01:11:37;1.43;;;1.10;;
10979;SDS011;5543;51.734;8.744;2023-01-28T01:14:05;1.10;;;0.90;;
10979;SDS011;5543;51.734;8.744;2023-01-28T01:16:33;1.13;;;1.03;;
10979;SDS011;5543;51.734;8.744;2023-01-28T01:19:04;0.80;;;0.80;;
10979;SDS011;5543;51.734;8.744;2023-01-28T01:21:34;0.97;;;0.90;;
10979;SDS011;5543;51.734;8.744;2023-01-28T01:24:03;0.73;;;0.57;;
10979;SDS011;5543;51.734;8.744;2023-01-28T01:26:32;1.23;;;0.80;;
10979;SDS011;5543;51.734;8.744;2023-01-28T01:29:00;2.50;;;0.97;;
10979;SDS011;5543;51.734;8.744;2023-01-28T01:31:28;0.80;;;0.63;;
10979;SDS011;5543;51.734;8.744;2023-01-28T01:33:56;1.00;;;0.90;;
10979;SDS011;5543;51.734;8.744;2023-01-28T01:36:24;1.47;;;0.87;;
10979;SDS011;5543;51.734;8.744;2023-01-28T01:38:53;0.93;;;0.87;;
10979;SDS011;5543;51.734;8.744;2023-01-28T01:41:23;1.00;;;0.90;;
10979;SDS011;5543;51.734;8.744;2023-01-28T01:43:56;0.80;;;0.77;;
10979;SDS011;5543;51.734;8.744;2023-01-28T01:46:27;0.50;;;0.50;;
10979;SDS011;5543;51.734;8.744;2023-01-28T01:49:02;0.93;;;0.87;;
10979;SDS011;5543;51.734;8.744;2023-01-28T01:51:38;0.53;;;0.50;;
10979;SDS011;5543;51.734;8.744;2023-01-28T01:54:07;0.57;;;0.57;;
10979;SDS011;5543;51.734;8.744;2023-01-28T01:56:36;0.60;;;0.60;;
10979;SDS011;5543;51.734;8.744;2023-01-28T01:59:09;2.43;;;1.37;;
10979;SDS011;5543;51.734;8.744;2023-01-28T02:01:41;0.93;;;0.60;;
10979;SDS011;5543;51.734;8.744;2023-01-28T02:04:11;0.70;;;0.70;;
10979;SDS011;5543;51.734;8.744;2023-01-28T02:06:44;1.57;;;0.90;;
10979;SDS011;5543;51.734;8.744;2023-01-28T02:09:21;2.17;;;1.43;;
10979;SDS011;5543;51.734;8.744;2023-01-28T02:11:50;0.50;;;0.50;;
10979;SDS011;5543;51.734;8.744;2023-01-28T02:14:23;0.60;;;0.60;;
10979;SDS011;5543;51.734;8.744;2023-01-28T02:16:57;1.57;;;0.73;;
10979;SDS011;5543;51.734;8.744;2023-01-28T02:19:28;1.23;;;0.70;;
10979;SDS011;5543;51.734;8.744;2023-01-28T02:22:04;1.07;;;0.40;;
10979;SDS011;5543;51.734;8.744;2023-01-28T02:28:02;0.43;;;0.43;;
10979;SDS011;5543;51.734;8.744;2023-01-28T02:30:43;0.47;;;0.47;;
10979;SDS011;5543;51.734;8.744;2023-01-28T02:33:20;0.80;;;0.50;;
10979;SDS011;5543;51.734;8.744;2023-01-28T02:35:54;0.40;;;0.40;;
10979;SDS011;5543;51.734;8.744;2023-01-28T02:38:24;0.40;;;0.40;;
10979;SDS011;5543;51.734;8.744;2023-01-28T02:40:56;0.90;;;0.77;;
10979;SDS011;5543;51.734;8.744;2023-01-28T02:43:34;0.90;;;0.70;;
10979;SDS011;5543;51.734;8.744;2023-01-28T02:49:08;0.57;;;0.40;;
10979;SDS011;5543;51.734;8.744;2023-01-28T02:51:56;0.60;;;0.60;;
10979;SDS011;5543;51.734;8.744;2023-01-28T02:54:39;0.50;;;0.50;;
10979;SDS011;5543;51.734;8.744;2023-01-28T02:57:15;0.67;;;0.67;;
10979;SDS011;5543;51.734;8.744;2023-01-28T02:59:54;0.70;;;0.70;;
10979;SDS011;5543;51.734;8.744;2023-01-28T03:02:27;1.17;;;0.60;;
10979;SDS011;5543;51.734;8.744;2023-01-28T03:05:01;0.60;;;0.60;;
10979;SDS011;5543;51.734;8.744;2023-01-28T03:07:34;0.63;;;0.60;;
10979;SDS011;5543;51.734;8.744;2023-01-28T03:10:05;1.13;;;0.57;;
10979;SDS011;5543;51.734;8.744;2023-01-28T03:12:40;0.80;;;0.80;;
10979;SDS011;5543;51.734;8.744;2023-01-28T03:15:28;0.73;;;0.73;;
10979;SDS011;5543;51.734;8.744;2023-01-28T03:18:19;0.40;;;0.40;;
10979;SDS011;5543;51.734;8.744;2023-01-28T03:21:08;0.50;;;0.50;;
10979;SDS011;5543;51.734;8.744;2023-01-28T03:23:56;0.60;;;0.60;;
10979;SDS011;5543;51.734;8.744;2023-01-28T03:26:46;0.80;;;0.77;;
10979;SDS011;5543;51.734;8.744;2023-01-28T03:29:37;0.60;;;0.60;;
10979;SDS011;5543;51.734;8.744;2023-01-28T03:32:26;0.60;;;0.60;;
10979;SDS011;5543;51.734;8.744;2023-01-28T03:35:12;0.70;;;0.70;;
10979;SDS011;5543;51.734;8.744;2023-01-28T03:37:59;0.73;;;0.70;;
10979;SDS011;5543;51.734;8.744;2023-01-28T03:40:47;1.13;;;1.00;;
10979;SDS011;5543;51.734;8.744;2023-01-28T03:43:17;0.40;;;0.40;;
10979;SDS011;5543;51.734;8.744;2023-01-28T03:45:45;0.80;;;0.73;;
10979;SDS011;5543;51.734;8.744;2023-01-28T03:48:18;0.60;;;0.60;;
10979;SDS011;5543;51.734;8.744;2023-01-28T03:50:47;0.60;;;0.60;;
10979;SDS011;5543;51.734;8.744;2023-01-28T03:53:16;0.73;;;0.73;;
10979;SDS011;5543;51.734;8.744;2023-01-28T03:55:46;0.63;;;0.60;;
10979;SDS011;5543;51.734;8.744;2023-01-28T03:58:16;0.87;;;0.73;;
10979;SDS011;5543;51.734;8.744;2023-01-28T04:00:45;1.40;;;0.70;;
10979;SDS011;5543;51.734;8.744;2023-01-28T04:03:14;0.83;;;0.83;;
10979;SDS011;5543;51.734;8.744;2023-01-28T04:05:45;0.50;;;0.50;;
10979;SDS011;5543;51.734;8.744;2023-01-28T04:08:24;1.10;;;0.63;;
10979;SDS011;5543;51.734;8.744;2023-01-28T04:10:52;1.77;;;1.10;;
10979;SDS011;5543;51.734;8.744;2023-01-28T04:13:20;0.73;;;0.63;;
10979;SDS011;5543;51.734;8.744;2023-01-28T04:15:49;0.60;;;0.50;;
10979;SDS011;5543;51.734;8.744;2023-01-28T04:18:17;1.53;;;0.87;;
10979;SDS011;5543;51.734;8.744;2023-01-28T04:20:53;1.20;;;1.10;;
10979;SDS011;5543;51.734;8.744;2023-01-28T04:23:21;0.90;;;0.87;;
10979;SDS011;5543;51.734;8.744;2023-01-28T04:25:50;4.07;;;1.07;;
10979;SDS011;5543;51.734;8.744;2023-01-28T04:28:18;1.40;;;0.97;;
10979;SDS011;5543;51.734;8.744;2023-01-28T04:30:46;4.80;;;0.90;;
10979;SDS011;5543;51.734;8.744;2023-01-28T04:33:14;1.07;;;0.90;;
10979;SDS011;5543;51.734;8.744;2023-01-28T04:35:42;0.90;;;0.73;;
10979;SDS011;5543;51.734;8.744;2023-01-28T04:38:12;0.60;;;0.60;;
10979;SDS011;5543;51.734;8.744;2023-01-28T04:40:40;0.57;;;0.57;;
10979;SDS011;5543;51.734;8.744;2023-01-28T04:43:08;1.60;;;0.70;;
10979;SDS011;5543;51.734;8.744;2023-01-28T04:45:36;0.70;;;0.70;;
10979;SDS011;5543;51.734;8.744;2023-01-28T04:48:04;0.77;;;0.77;;
10979;SDS011;5543;51.734;8.744;2023-01-28T04:50:32;0.57;;;0.53;;
10979;SDS011;5543;51.734;8.744;2023-01-28T04:53:00;0.50;;;0.50;;
10979;SDS011;5543;51.734;8.744;2023-01-28T04:55:30;0.60;;;0.60;;
10979;SDS011;5543;51.734;8.744;2023-01-28T04:57:58;1.07;;;0.77;;
10979;SDS011;5543;51.734;8.744;2023-01-28T05:00:26;14.27;;;1.13;;
10979;SDS011;5543;51.734;8.744;2023-01-28T05:02:54;1.27;;;1.13;;
10979;SDS011;5543;51.734;8.744;2023-01-28T05:05:22;0.50;;;0.50;;
10979;SDS011;5543;51.734;8.744;2023-01-28T05:07:51;0.60;;;0.60;;
10979;SDS011;5543;51.734;8.744;2023-01-28T05:10:19;0.53;;;0.53;;
10979;SDS011;5543;51.734;8.744;2023-01-28T05:12:49;0.70;;;0.70;;
10979;SDS011;5543;51.734;8.744;2023-01-28T05:15:18;0.70;;;0.60;;
10979;SDS011;5543;51.734;8.744;2023-01-28T05:17:46;1.00;;;0.90;;
10979;SDS011;5543;51.734;8.744;2023-01-28T05:20:14;0.40;;;0.40;;
10979;SDS011;5543;51.734;8.744;2023-01-28T05:22:48;4.03;;;0.73;;
10979;SDS011;5543;51.734;8.744;2023-01-28T05:25:17;1.27;;;0.80;;
10979;SDS011;5543;51.734;8.744;2023-01-28T05:27:49;0.40;;;0.40;;
10979;SDS011;5543;51.734;8.744;2023-01-28T05:30:18;0.70;;;0.57;;
10979;SDS011;5543;51.734;8.744;2023-01-28T05:32:46;0.50;;;0.50;;
10979;SDS011;5543;51.734;8.744;2023-01-28T05:35:14;0.80;;;0.80;;
10979;SDS011;5543;51.734;8.744;2023-01-28T05:37:43;0.60;;;0.60;;
10979;SDS011;5543;51.734;8.744;2023-01-28T05:40:11;6.23;;;1.23;;
10979;SDS011;5543;51.734;8.744;2023-01-28T05:42:40;0.40;;;0.40;;
10979;SDS011;5543;51.734;8.744;2023-01-28T05:45:10;0.60;;;0.60;;
10979;SDS011;5543;51.734;8.744;2023-01-28T05:47:39;0.73;;;0.60;;
10979;SDS011;5543;51.734;8.744;2023-01-28T05:50:10;0.60;;;0.60;;
10979;SDS011;5543;51.734;8.744;2023-01-28T05:52:41;4.87;;;0.60;;
10979;SDS011;5543;51.734;8.744;2023-01-28T05:55:09;0.43;;;0.40;;
10979;SDS011;5543;51.734;8.744;2023-01-28T05:57:37;0.97;;;0.90;;
10979;SDS011;5543;51.734;8.744;2023-01-28T06:00:05;0.97;;;0.80;;
10979;SDS011;5543;51.734;8.744;2023-01-28T06:02:36;8.70;;;1.00;;
10979;SDS011;5543;51.734;8.744;2023-01-28T06:05:04;0.67;;;0.63;;
10979;SDS011;5543;51.734;8.744;2023-01-28T06:07:32;0.83;;;0.60;;
10979;SDS011;5543;51.734;8.744;2023-01-28T06:10:01;0.93;;;0.70;;
10979;SDS011;5543;51.734;8.744;2023-01-28T06:12:29;2.43;;;0.80;;
10979;SDS011;5543;51.734;8.744;2023-01-28T06:14:57;1.70;;;0.70;;
10979;SDS011;5543;51.734;8.744;2023-01-28T06:17:25;1.50;;;1.40;;
10979;SDS011;5543;51.734;8.744;2023-01-28T06:19:54;1.53;;;0.90;;
10979;SDS011;5543;51.734;8.744;2023-01-28T06:22:22;1.33;;;1.03;;
10979;SDS011;5543;51.734;8.744;2023-01-28T06:24:50;1.03;;;1.03;;
10979;SDS011;5543;51.734;8.744;2023-01-28T06:27:18;1.10;;;0.60;;
10979;SDS011;5543;51.734;8.744;2023-01-28T06:29:46;0.93;;;0.87;;
10979;SDS011;5543;51.734;8.744;2023-01-28T06:32:14;1.30;;;1.20;;
10979;SDS011;5543;51.734;8.744;2023-01-28T06:34:42;0.40;;;0.40;;
10979;SDS011;5543;51.734;8.744;2023-01-28T06:37:12;1.30;;;0.80;;
10979;SDS011;5543;51.734;8.744;2023-01-28T06:39:41;1.43;;;0.97;;
10979;SDS011;5543;51.734;8.744;2023-01-28T06:42:09;1.20;;;0.80;;
10979;SDS011;5543;51.734;8.744;2023-01-28T06:44:37;0.90;;;0.87;;
10979;SDS011;5543;51.734;8.744;2023-01-28T06:47:05;1.23;;;0.63;;
10979;SDS011;5543;51.734;8.744;2023-01-28T06:49:34;3.57;;;0.87;;
10979;SDS011;5543;51.734;8.744;2023-01-28T06:52:02;0.97;;;0.90;;
10979;SDS011;5543;51.734;8.744;2023-01-28T06:54:32;1.63;;;0.93;;
10979;SDS011;5543;51.734;8.744;2023-01-28T06:57:00;1.07;;;0.80;;
10979;SDS011;5543;51.734;8.744;2023-01-28T06:59:28;0.90;;;0.90;;
10979;SDS011;5543;51.734;8.744;2023-01-28T07:01:56;0.80;;;0.80;;
10979;SDS011;5543;51.734;8.744;2023-01-28T07:04:24;0.70;;;0.70;;
10979;SDS011;5543;51.734;8.744;2023-01-28T07:06:52;0.93;;;0.80;;
10979;SDS011;5543;51.734;8.744;2023-01-28T07:09:20;0.67;;;0.60;;
10979;SDS011;5543;51.734;8.744;2023-01-28T07:11:49;2.03;;;0.97;;
10979;SDS011;5543;51.734;8.744;2023-01-28T07:14:17;1.90;;;1.03;;
10979;SDS011;5543;51.734;8.744;2023-01-28T07:16:45;0.97;;;0.97;;
10979;SDS011;5543;51.734;8.744;2023-01-28T07:19:13;0.93;;;0.87;;
10979;SDS011;5543;51.734;8.744;2023-01-28T07:21:41;1.67;;;0.90;;
10979;SDS011;5543;51.734;8.744;2023-01-28T07:24:10;1.20;;;1.10;;
10979;SDS011;5543;51.734;8.744;2023-01-28T07:26:38;0.97;;;0.80;;
10979;SDS011;5543;51.734;8.744;2023-01-28T07:29:08;1.23;;;1.13;;
10979;SDS011;5543;51.734;8.744;2023-01-28T07:31:36;2.63;;;1.10;;
10979;SDS011;5543;51.734;8.744;2023-01-28T07:34:04;1.13;;;0.67;;
10979;SDS011;5543;51.734;8.744;2023-01-28T07:36:32;2.00;;;1.00;;
10979;SDS011;5543;51.734;8.744;2023-01-28T07:39:01;1.17;;;0.90;;
10979;SDS011;5543;51.734;8.744;2023-01-28T07:41:29;0.83;;;0.80;;
10979;SDS011;5543;51.734;8.744;2023-01-28T07:43:57;1.20;;;0.90;;
10979;SDS011;5543;51.734;8.744;2023-01-28T07:46:26;0.93;;;0.80;;
10979;SDS011;5543;51.734;8.744;2023-01-28T07:48:54;0.77;;;0.63;;
10979;SDS011;5543;51.734;8.744;2023-01-28T07:51:22;0.70;;;0.70;;
10979;SDS011;5543;51.734;8.744;2023-01-28T07:53:51;1.00;;;0.67;;
10979;SDS011;5543;51.734;8.744;2023-01-28T07:56:19;1.40;;;1.03;;
10979;SDS011;5543;51.734;8.744;2023-01-28T07:58:48;1.03;;;0.90;;
10979;SDS011;5543;51.734;8.744;2023-01-28T08:01:16;2.10;;;0.90;;
10979;SDS011;5543;51.734;8.744;2023-01-28T08:03:46;0.80;;;0.80;;
10979;SDS011;5543;51.734;8.744;2023-01-28T08:06:14;0.93;;;0.83;;
10979;SDS011;5543;51.734;8.744;2023-01-28T08:08:42;2.33;;;1.30;;
10979;SDS011;5543;51.734;8.744;2023-01-28T08:11:10;0.80;;;0.80;;
10979;SDS011;5543;51.734;8.744;2023-01-28T08:13:38;1.43;;;1.13;;
10979;SDS011;5543;51.734;8.744;2023-01-28T08:16:06;1.07;;;0.93;;
10979;SDS011;5543;51.734;8.744;2023-01-28T08:18:34;0.60;;;0.60;;
10979;SDS011;5543;51.734;8.744;2023-01-28T08:21:03;1.33;;;1.07;;
10979;SDS011;5543;51.734;8.744;2023-01-28T08:23:32;1.47;;;1.00;;
10979;SDS011;5543;51.734;8.744;2023-01-28T08:26:00;0.70;;;0.70;;
10979;SDS011;5543;51.734;8.744;2023-01-28T08:28:28;1.20;;;1.07;;
10979;SDS011;5543;51.734;8.744;2023-01-28T08:30:58;1.77;;;1.37;;
10979;SDS011;5543;51.734;8.744;2023-01-28T08:33:27;1.63;;;1.50;;
10979;SDS011;5543;51.734;8.744;2023-01-28T08:35:55;2.70;;;1.83;;
10979;SDS011;5543;51.734;8.744;2023-01-28T08:38:24;0.80;;;0.80;;
10979;SDS011;5543;51.734;8.744;2023-01-28T08:40:52;1.77;;;1.23;;
10979;SDS011;5543;51.734;8.744;2023-01-28T08:43:24;1.97;;;1.27;;
10979;SDS011;5543;51.734;8.744;2023-01-28T08:45:52;1.23;;;1.10;;
10979;SDS011;5543;51.734;8.744;2023-01-28T08:48:20;1.20;;;1.03;;
10979;SDS011;5543;51.734;8.744;2023-01-28T08:50:48;1.20;;;1.03;;
10979;SDS011;5543;51.734;8.744;2023-01-28T08:53:18;0.87;;;0.77;;
10979;SDS011;5543;51.734;8.744;2023-01-28T08:55:48;1.00;;;0.87;;
10979;SDS011;5543;51.734;8.744;2023-01-28T08:58:16;1.70;;;1.17;;
10979;SDS011;5543;51.734;8.744;2023-01-28T09:00:45;1.40;;;1.10;;
10979;SDS011;5543;51.734;8.744;2023-01-28T09:03:13;1.43;;;0.80;;
10979;SDS011;5543;51.734;8.744;2023-01-28T09:05:42;1.00;;;0.90;;
10979;SDS011;5543;51.734;8.744;2023-01-28T09:08:11;0.80;;;0.80;;
10979;SDS011;5543;51.734;8.744;2023-01-28T09:10:40;2.40;;;1.00;;
10979;SDS011;5543;51.734;8.744;2023-01-28T09:13:11;2.07;;;1.07;;
10979;SDS011;5543;51.734;8.744;2023-01-28T09:15:41;1.60;;;1.10;;
10979;SDS011;5543;51.734;8.744;2023-01-28T09:18:09;2.67;;;1.33;;
10979;SDS011;5543;51.734;8.744;2023-01-28T09:20:37;1.50;;;1.20;;
10979;SDS011;5543;51.734;8.744;2023-01-28T09:23:05;1.70;;;1.17;;
10979;SDS011;5543;51.734;8.744;2023-01-28T09:25:34;1.40;;;0.90;;
10979;SDS011;5543;51.734;8.744;2023-01-28T09:28:02;1.10;;;1.00;;
10979;SDS011;5543;51.734;8.744;2023-01-28T09:30:32;1.10;;;1.00;;
10979;SDS011;5543;51.734;8.744;2023-01-28T09:33:03;0.77;;;0.67;;
10979;SDS011;5543;51.734;8.744;2023-01-28T09:35:32;2.27;;;1.30;;
10979;SDS011;5543;51.734;8.744;2023-01-28T09:38:02;3.53;;;1.10;;
10979;SDS011;5543;51.734;8.744;2023-01-28T09:40:31;1.67;;;1.07;;
10979;SDS011;5543;51.734;8.744;2023-01-28T09:43:11;1.77;;;1.23;;
10979;SDS011;5543;51.734;8.744;2023-01-28T09:46:01;2.43;;;1.23;;
10979;SDS011;5543;51.734;8.744;2023-01-28T09:48:31;1.07;;;0.97;;
10979;SDS011;5543;51.734;8.744;2023-01-28T09:51:06;1.67;;;1.20;;
10979;SDS011;5543;51.734;8.744;2023-01-28T09:53:38;1.10;;;1.00;;
10979;SDS011;5543;51.734;8.744;2023-01-28T09:56:13;1.17;;;0.80;;
10979;SDS011;5543;51.734;8.744;2023-01-28T09:58:46;1.33;;;1.23;;
10979;SDS011;5543;51.734;8.744;2023-01-28T10:01:21;0.83;;;0.83;;
10979;SDS011;5543;51.734;8.744;2023-01-28T10:04:03;0.70;;;0.70;;
10979;SDS011;5543;51.734;8.744;2023-01-28T10:06:44;2.07;;;0.73;;
10979;SDS011;5543;51.734;8.744;2023-01-28T10:09:27;1.00;;;0.97;;
10979;SDS011;5543;51.734;8.744;2023-01-28T10:12:09;2.20;;;1.20;;
10979;SDS011;5543;51.734;8.744;2023-01-28T10:14:52;0.93;;;0.87;;
10979;SDS011;5543;51.734;8.744;2023-01-28T10:17:32;1.17;;;1.07;;
10979;SDS011;5543;51.734;8.744;2023-01-28T10:20:04;1.17;;;0.70;;
10979;SDS011;5543;51.734;8.744;2023-01-28T10:22:44;2.50;;;1.10;;
10979;SDS011;5543;51.734;8.744;2023-01-28T10:25:16;1.03;;;0.97;;
10979;SDS011;5543;51.734;8.744;2023-01-28T10:27:47;1.20;;;1.10;;
10979;SDS011;5543;51.734;8.744;2023-01-28T10:30:17;1.50;;;1.10;;
10979;SDS011;5543;51.734;8.744;2023-01-28T10:32:50;1.73;;;1.10;;
10979;SDS011;5543;51.734;8.744;2023-01-28T10:35:19;1.43;;;1.20;;
10979;SDS011;5543;51.734;8.744;2023-01-28T10:37:48;1.33;;;1.03;;
10979;SDS011;5543;51.734;8.744;2023-01-28T10:40:17;2.90;;;1.40;;
10979;SDS011;5543;51.734;8.744;2023-01-28T10:42:45;2.00;;;1.37;;
10979;SDS011;5543;51.734;8.744;2023-01-28T10:45:15;1.90;;;1.13;;
10979;SDS011;5543;51.734;8.744;2023-01-28T10:47:48;1.97;;;1.20;;
10979;SDS011;5543;51.734;8.744;2023-01-28T10:50:21;1.63;;;0.93;;
10979;SDS011;5543;51.734;8.744;2023-01-28T10:52:52;1.50;;;1.17;;
10979;SDS011;5543;51.734;8.744;2023-01-28T10:55:20;1.30;;;1.07;;
10979;SDS011;5543;51.734;8.744;2023-01-28T10:57:50;3.00;;;1.47;;
10979;SDS011;5543;51.734;8.744;2023-01-28T11:00:23;1.50;;;1.23;;
10979;SDS011;5543;51.734;8.744;2023-01-28T11:02:54;1.87;;;1.10;;
10979;SDS011;5543;51.734;8.744;2023-01-28T11:05:24;1.30;;;1.00;;
10979;SDS011;5543;51.734;8.744;2023-01-28T11:08:03;1.87;;;1.23;;
10979;SDS011;5543;51.734;8.744;2023-01-28T11:10:34;1.67;;;1.30;;
10979;SDS011;5543;51.734;8.744;2023-01-28T11:13:04;2.90;;;1.60;;
10979;SDS011;5543;51.734;8.744;2023-01-28T11:15:44;1.63;;;1.23;;
10979;SDS011;5543;51.734;8.744;2023-01-28T11:18:17;1.50;;;0.90;;
10979;SDS011;5543;51.734;8.744;2023-01-28T11:20:50;1.47;;;1.07;;
10979;SDS011;5543;51.734;8.744;2023-01-28T11:23:23;1.33;;;1.23;;
10979;SDS011;5543;51.734;8.744;2023-01-28T11:28:42;1.77;;;1.40;;
10979;SDS011;5543;51.734;8.744;2023-01-28T11:31:11;1.00;;;0.90;;
10979;SDS011;5543;51.734;8.744;2023-01-28T11:33:44;1.00;;;1.00;;
10979;SDS011;5543;51.734;8.744;2023-01-28T11:36:16;2.03;;;1.30;;
10979;SDS011;5543;51.734;8.744;2023-01-28T11:38:47;1.67;;;1.27;;
10979;SDS011;5543;51.734;8.744;2023-01-28T11:41:18;3.63;;;1.67;;
10979;SDS011;5543;51.734;8.744;2023-01-28T11:43:52;1.57;;;1.47;;
10979;SDS011;5543;51.734;8.744;2023-01-28T11:46:30;1.30;;;1.00;;
10979;SDS011;5543;51.734;8.744;2023-01-28T11:49:13;2.00;;;1.33;;
10979;SDS011;5543;51.734;8.744;2023-01-28T11:51:52;1.10;;;0.80;;
10979;SDS011;5543;51.734;8.744;2023-01-28T11:54:31;3.17;;;0.97;;
10979;SDS011;5543;51.734;8.744;2023-01-28T11:57:20;2.67;;;1.23;;
10979;SDS011;5543;51.734;8.744;2023-01-28T11:59:56;2.10;;;1.67;;
10979;SDS011;5543;51.734;8.744;2023-01-28T12:02:48;1.07;;;0.97;;
10979;SDS011;5543;51.734;8.744;2023-01-28T12:05:35;1.17;;;1.07;;
10979;SDS011;5543;51.734;8.744;2023-01-28T12:08:15;1.40;;;1.30;;
10979;SDS011;5543;51.734;8.744;2023-01-28T12:10:54;1.63;;;1.47;;
10979;SDS011;5543;51.734;8.744;2023-01-28T12:13:38;1.63;;;1.20;;
10979;SDS011;5543;51.734;8.744;2023-01-28T12:16:22;4.57;;;1.00;;
10979;SDS011;5543;51.734;8.744;2023-01-28T12:19:20;10.70;;;1.70;;
10979;SDS011;5543;51.734;8.744;2023-01-28T12:25:25;5.17;;;1.50;;
10979;SDS011;5543;51.734;8.744;2023-01-28T12:28:02;1.63;;;1.30;;
10979;SDS011;5543;51.734;8.744;2023-01-28T12:30:44;1.00;;;0.90;;
10979;SDS011;5543;51.734;8.744;2023-01-28T12:33:29;1.37;;;1.13;;
10979;SDS011;5543;51.734;8.744;2023-01-28T12:36:18;1.13;;;1.03;;
10979;SDS011;5543;51.734;8.744;2023-01-28T12:39:00;2.50;;;1.50;;
10979;SDS011;5543;51.734;8.744;2023-01-28T12:41:39;1.60;;;1.33;;
10979;SDS011;5543;51.734;8.744;2023-01-28T12:44:11;2.03;;;1.53;;
10979;SDS011;5543;51.734;8.744;2023-01-28T12:46:47;1.87;;;1.67;;
10979;SDS011;5543;51.734;8.744;2023-01-28T12:49:20;1.97;;;1.70;;
10979;SDS011;5543;51.734;8.744;2023-01-28T12:51:54;2.42;;;1.58;;
10979;SDS011;5543;51.734;8.744;2023-01-28T12:54:30;3.33;;;1.30;;
10979;SDS011;5543;51.734;8.744;2023-01-28T12:57:02;1.80;;;1.43;;
10979;SDS011;5543;51.734;8.744;2023-01-28T12:59:31;2.30;;;1.63;;
10979;SDS011;5543;51.734;8.744;2023-01-28T13:02:13;2.87;;;1.87;;
10979;SDS011;5543;51.734;8.744;2023-01-28T13:04:53;1.43;;;1.20;;
10979;SDS011;5543;51.734;8.744;2023-01-28T13:07:31;1.87;;;1.30;;
10979;SDS011;5543;51.734;8.744;2023-01-28T13:10:04;2.57;;;1.40;;
10979;SDS011;5543;51.734;8.744;2023-01-28T13:12:38;1.30;;;1.20;;
10979;SDS011;5543;51.734;8.744;2023-01-28T13:15:10;3.10;;;1.60;;
10979;SDS011;5543;51.734;8.744;2023-01-28T13:17:52;2.10;;;1.37;;
10979;SDS011;5543;51.734;8.744;2023-01-28T13:20:35;2.80;;;1.73;;
10979;SDS011;5543;51.734;8.744;2023-01-28T13:23:05;1.77;;;1.50;;
10979;SDS011;5543;51.734;8.744;2023-01-28T13:25:51;2.43;;;1.70;;
10979;SDS011;5543;51.734;8.744;2023-01-28T13:28:27;2.27;;;1.80;;
10979;SDS011;5543;51.734;8.744;2023-01-28T13:31:00;1.83;;;1.40;;
10979;SDS011;5543;51.734;8.744;2023-01-28T13:33:30;1.83;;;1.67;;
10979;SDS011;5543;51.734;8.744;2023-01-28T13:36:01;2.33;;;1.65;;
10979;SDS011;5543;51.734;8.744;2023-01-28T13:38:36;2.33;;;1.30;;
10979;SDS011;5543;51.734;8.744;2023-01-28T13:41:06;2.63;;;1.33;;
10979;SDS011;5543;51.734;8.744;2023-01-28T13:43:36;2.67;;;1.42;;
10979;SDS011;5543;51.734;8.744;2023-01-28T13:46:05;1.83;;;1.25;;
10979;SDS011;5543;51.734;8.744;2023-01-28T13:48:38;1.70;;;1.40;;
10979;SDS011;5543;51.734;8.744;2023-01-28T13:51:09;3.23;;;1.90;;
10979;SDS011;5543;51.734;8.744;2023-01-28T13:53:44;1.87;;;1.70;;
10979;SDS011;5543;51.734;8.744;2023-01-28T13:56:19;6.07;;;2.20;;
10979;SDS011;5543;51.734;8.744;2023-01-28T13:59:10;2.37;;;1.47;;
10979;SDS011;5543;51.734;8.744;2023-01-28T14:02:13;2.50;;;1.57;;
10979;SDS011;5543;51.734;8.744;2023-01-28T14:05:20;2.57;;;1.50;;
10979;SDS011;5543;51.734;8.744;2023-01-28T14:11:20;2.37;;;1.80;;
10979;SDS011;5543;51.734;8.744;2023-01-28T14:17:09;2.30;;;1.67;;
10979;SDS011;5543;51.734;8.744;2023-01-28T14:19:48;4.03;;;1.93;;
10979;SDS011;5543;51.734;8.744;2023-01-28T14:22:19;4.20;;;2.23;;
10979;SDS011;5543;51.734;8.744;2023-01-28T14:24:47;2.37;;;1.60;;
10979;SDS011;5543;51.734;8.744;2023-01-28T14:27:19;3.40;;;2.40;;
10979;SDS011;5543;51.734;8.744;2023-01-28T14:29:56;1.60;;;1.50;;
10979;SDS011;5543;51.734;8.744;2023-01-28T14:32:33;2.80;;;1.80;;
10979;SDS011;5543;51.734;8.744;2023-01-28T14:35:05;3.07;;;1.73;;
10979;SDS011;5543;51.734;8.744;2023-01-28T14:37:35;3.30;;;2.10;;
10979;SDS011;5543;51.734;8.744;2023-01-28T14:40:05;4.20;;;1.90;;
10979;SDS011;5543;51.734;8.744;2023-01-28T14:42:36;2.33;;;1.70;;
10979;SDS011;5543;51.734;8.744;2023-01-28T14:45:11;3.60;;;2.20;;
10979;SDS011;5543;51.734;8.744;2023-01-28T14:47:55;4.00;;;1.73;;
10979;SDS011;5543;51.734;8.744;2023-01-28T14:50:43;3.50;;;2.00;;
10979;SDS011;5543;51.734;8.744;2023-01-28T14:53:40;9.30;;;2.33;;
10979;SDS011;5543;51.734;8.744;2023-01-28T14:56:20;1.53;;;1.43;;
10979;SDS011;5543;51.734;8.744;2023-01-28T14:59:01;2.17;;;1.53;;
10979;SDS011;5543;51.734;8.744;2023-01-28T15:01:42;3.50;;;1.80;;
10979;SDS011;5543;51.734;8.744;2023-01-28T15:04:20;3.27;;;1.90;;
10979;SDS011;5543;51.734;8.744;2023-01-28T15:06:50;2.70;;;2.47;;
10979;SDS011;5543;51.734;8.744;2023-01-28T15:09:18;4.97;;;1.90;;
10979;SDS011;5543;51.734;8.744;2023-01-28T15:11:48;4.27;;;2.10;;
10979;SDS011;5543;51.734;8.744;2023-01-28T15:14:21;3.70;;;2.37;;
10979;SDS011;5543;51.734;8.744;2023-01-28T15:16:53;4.03;;;2.10;;
10979;SDS011;5543;51.734;8.744;2023-01-28T15:19:24;2.77;;;2.17;;
10979;SDS011;5543;51.734;8.744;2023-01-28T15:21:55;7.57;;;2.63;;
10979;SDS011;5543;51.734;8.744;2023-01-28T15:24:25;3.07;;;1.80;;
10979;SDS011;5543;51.734;8.744;2023-01-28T15:26:53;3.93;;;2.50;;
10979;SDS011;5543;51.734;8.744;2023-01-28T15:29:30;3.93;;;2.33;;
10979;SDS011;5543;51.734;8.744;2023-01-28T15:31:59;3.10;;;2.20;;
10979;SDS011;5543;51.734;8.744;2023-01-28T15:34:27;2.47;;;1.93;;
10979;SDS011;5543;51.734;8.744;2023-01-28T15:36:56;3.03;;;1.93;;
10979;SDS011;5543;51.734;8.744;2023-01-28T15:39:26;5.00;;;1.73;;
10979;SDS011;5543;51.734;8.744;2023-01-28T15:41:56;2.60;;;1.67;;
10979;SDS011;5543;51.734;8.744;2023-01-28T15:44:30;4.17;;;2.50;;
10979;SDS011;5543;51.734;8.744;2023-01-28T15:47:01;3.33;;;2.33;;
10979;SDS011;5543;51.734;8.744;2023-01-28T15:49:33;6.63;;;2.20;;
10979;SDS011;5543;51.734;8.744;2023-01-28T15:52:03;4.87;;;2.87;;